Time;durP1;ratioP1;P1;durP2;ratioP2;P2;SDS_P1;SDS_P2;PMS_P1;PMS_P2;Temp;Humidity;BMP_temperature;BMP_pressure;BME280_temperature;BME280_humidity;BME280_pressure;Samples;Min_cycle;Max_cycle;Signal;HPM_P1;HPM_P2
2024/01/24 00:01:18;;;;;;;3.42;1.50;;;;;;;10.15;55.38;101260.03;4973220;28;20114;-75
2024/01/24 00:03:48;;;;;;;2.92;1.58;;;;;;;10.18;55.77;101237.06;4972077;28;20051;-74
2024/01/24 00:06:16;;;;;;;3.50;1.45;;;;;;;10.19;55.16;101239.66;4976573;28;20041;-74
2024/01/24 00:08:44;;;;;;;4.00;1.45;;;;;;;10.20;55.27;101252.34;4972308;28;20054;-74
2024/01/24 00:11:12;;;;;;;3.60;1.45;;;;;;;10.22;55.79;101247.63;4973386;28;20061;-74
2024/01/24 00:13:40;;;;;;;3.05;1.38;;;;;;;10.23;55.37;101230.22;4975959;28;20065;-75
2024/01/24 00:16:08;;;;;;;4.65;1.50;;;;;;;10.27;55.71;101219.91;4974925;28;20050;-74
2024/01/24 00:18:36;;;;;;;2.78;1.35;;;;;;;10.27;55.31;101228.09;4973376;28;20129;-75
2024/01/24 00:21:06;;;;;;;3.50;1.50;;;;;;;10.31;55.38;101240.56;4971630;28;20049;-75
2024/01/24 00:23:33;;;;;;;3.00;1.30;;;;;;;10.31;55.48;101240.56;4965658;28;20055;-75
2024/01/24 00:26:02;;;;;;;4.93;1.52;;;;;;;10.33;55.39;101224.88;4974179;28;20047;-74
2024/01/24 00:28:30;;;;;;;4.43;1.70;;;;;;;10.35;55.39;101216.53;4970127;28;20058;-75
2024/01/24 00:30:57;;;;;;;4.50;1.42;;;;;;;10.37;55.23;101223.66;4972164;28;20085;-74
2024/01/24 00:33:25;;;;;;;4.95;2.05;;;;;;;10.39;55.69;101207.97;4969065;28;20179;-75
2024/01/24 00:35:53;;;;;;;2.90;1.27;;;;;;;10.39;55.71;101202.50;4976047;28;20051;-75
2024/01/24 00:38:23;;;;;;;3.78;1.40;;;;;;;10.42;55.52;101193.16;4969396;28;20051;-75
2024/01/24 00:40:51;;;;;;;4.07;1.75;;;;;;;10.42;55.45;101183.09;4973601;28;20125;-74
2024/01/24 00:43:19;;;;;;;3.72;1.38;;;;;;;10.44;55.61;101182.97;4970151;28;20050;-75
2024/01/24 00:45:47;;;;;;;3.67;1.60;;;;;;;10.46;55.88;101170.03;4974802;28;20476;-75
2024/01/24 00:48:15;;;;;;;3.92;1.45;;;;;;;10.47;55.55;101164.44;4976758;28;20113;-75
2024/01/24 00:50:43;;;;;;;3.10;1.30;;;;;;;10.50;55.73;101176.97;4974808;28;20062;-75
2024/01/24 00:53:16;;;;;;;3.10;1.40;;;;;;;10.54;56.22;101181.25;4973514;28;20047;-74
2024/01/24 00:55:45;;;;;;;3.58;1.20;;;;;;;10.53;55.79;101176.75;4984879;28;20488;-75
2024/01/24 00:58:14;;;;;;;4.68;1.20;;;;;;;10.56;55.83;101182.88;4978793;28;20050;-75
2024/01/24 01:00:42;;;;;;;2.45;1.42;;;;;;;10.58;55.58;101190.94;4977906;28;20527;-75
2024/01/24 01:03:10;;;;;;;4.10;1.40;;;;;;;10.61;55.83;101171.53;4978267;28;20402;-75
2024/01/24 01:05:38;;;;;;;4.38;1.98;;;;;;;10.62;55.47;101173.28;4977562;28;20062;-75
2024/01/24 01:08:06;;;;;;;3.70;1.33;;;;;;;10.66;55.54;101154.72;4976359;28;20051;-74
2024/01/24 01:10:34;;;;;;;2.90;1.30;;;;;;;10.67;55.53;101151.84;4977320;28;20141;-75
2024/01/24 01:13:04;;;;;;;4.32;1.50;;;;;;;10.71;55.94;101158.84;4971219;28;20450;-75
2024/01/24 01:15:32;;;;;;;5.25;1.40;;;;;;;10.72;55.49;101170.66;4974557;28;20541;-75
2024/01/24 01:18:00;;;;;;;5.00;1.45;;;;;;;10.74;55.44;101171.38;4972865;28;20451;-74
2024/01/24 01:20:28;;;;;;;4.03;1.30;;;;;;;10.77;55.82;101168.38;4975763;28;20513;-74
2024/01/24 01:22:56;;;;;;;3.92;1.35;;;;;;;10.79;55.83;101171.88;4976000;28;20034;-75
2024/01/24 01:25:24;;;;;;;2.80;1.35;;;;;;;10.82;55.62;101150.56;4973241;28;20057;-75
2024/01/24 01:27:52;;;;;;;2.35;1.20;;;;;;;10.85;55.83;101158.53;4980533;28;20135;-74
2024/01/24 01:30:23;;;;;;;3.53;1.30;;;;;;;10.89;55.72;101149.06;4975170;28;20046;-75
2024/01/24 01:32:51;;;;;;;3.22;1.30;;;;;;;10.91;55.22;101148.94;4977178;28;20125;-75
2024/01/24 01:35:19;;;;;;;2.63;1.13;;;;;;;10.93;55.28;101131.38;4978263;28;20039;-75
2024/01/24 01:37:48;;;;;;;3.47;1.20;;;;;;;10.96;55.22;101124.78;4970207;28;20047;-74
2024/01/24 01:40:15;;;;;;;3.40;1.30;;;;;;;10.99;55.25;101121.75;4982246;28;20121;-75
2024/01/24 01:42:44;;;;;;;2.58;1.40;;;;;;;11.03;55.03;101120.50;4972367;28;20123;-75
2024/01/24 01:45:13;;;;;;;6.38;1.80;;;;;;;11.03;55.42;101112.28;4974799;28;20180;-75
2024/01/24 01:47:43;;;;;;;4.15;1.48;;;;;;;11.08;55.49;101110.03;4972613;28;21385;-75
2024/01/24 01:50:15;;;;;;;2.53;1.30;;;;;;;11.09;55.02;101117.25;4969481;28;20046;-75
2024/01/24 01:52:44;;;;;;;2.17;1.02;;;;;;;11.10;55.38;101121.72;4972054;28;20079;-75
2024/01/24 01:55:13;;;;;;;2.65;1.10;;;;;;;11.14;55.25;101125.91;4974359;28;20502;-75
2024/01/24 01:57:44;;;;;;;4.53;1.60;;;;;;;11.18;54.99;101112.84;4973299;28;20138;-75
2024/01/24 02:00:20;;;;;;;3.78;1.23;;;;;;;11.20;54.76;101119.06;4972689;28;20062;-75
2024/01/24 02:02:50;;;;;;;3.35;1.17;;;;;;;11.23;54.80;101113.31;4966853;28;20050;-74
2024/01/24 02:05:18;;;;;;;2.28;1.00;;;;;;;11.24;55.11;101115.03;4972864;28;20410;-74
2024/01/24 02:07:47;;;;;;;2.13;0.90;;;;;;;11.26;54.83;101113.06;4972518;28;20098;-75
2024/01/24 02:10:15;;;;;;;2.42;1.20;;;;;;;11.31;54.75;101124.47;4971589;28;20413;-75
2024/01/24 02:12:43;;;;;;;2.30;1.10;;;;;;;11.32;54.71;101123.47;4970235;28;20121;-75
2024/01/24 02:15:12;;;;;;;2.60;1.23;;;;;;;11.34;54.77;101136.03;4972016;28;20043;-75
2024/01/24 02:17:40;;;;;;;2.88;1.00;;;;;;;11.38;54.98;101127.56;4973722;28;20037;-75
2024/01/24 02:20:10;;;;;;;1.52;0.93;;;;;;;11.42;54.85;101107.97;4971210;28;20101;-75
2024/01/24 02:22:38;;;;;;;1.85;0.90;;;;;;;11.45;54.36;101096.75;4966465;28;20126;-75
2024/01/24 02:25:08;;;;;;;1.27;0.82;;;;;;;11.48;54.53;101099.22;4975936;28;20051;-75
2024/01/24 02:27:36;;;;;;;2.70;1.10;;;;;;;11.50;54.62;101096.34;4972604;28;20066;-74
2024/01/24 02:30:05;;;;;;;1.30;0.88;;;;;;;11.53;54.47;101094.22;4971105;28;20126;-75
2024/01/24 02:32:33;;;;;;;1.58;0.93;;;;;;;11.55;54.49;101086.72;4966493;28;20057;-75
2024/01/24 02:35:01;;;;;;;2.75;1.10;;;;;;;11.57;54.03;101087.44;4971947;28;20065;-75
2024/01/24 02:37:29;;;;;;;2.22;1.00;;;;;;;11.60;54.14;101069.84;4972452;28;20115;-75
2024/01/24 02:39:57;;;;;;;1.55;0.77;;;;;;;11.60;54.30;101073.47;4967925;28;20449;-75
2024/01/24 02:42:26;;;;;;;2.50;0.90;;;;;;;11.67;53.99;101076.56;4971311;28;20083;-75
2024/01/24 02:44:54;;;;;;;2.05;1.00;;;;;;;11.66;54.19;101072.94;4972031;28;20051;-75
2024/01/24 02:47:22;;;;;;;1.20;0.70;;;;;;;11.70;54.24;101054.38;4969410;28;20125;-75
2024/01/24 02:49:50;;;;;;;1.63;0.77;;;;;;;11.71;53.88;101078.03;4972216;28;20051;-75
2024/01/24 02:52:18;;;;;;;1.27;0.70;;;;;;;11.73;54.04;101092.47;4969776;28;20054;-76
2024/01/24 02:54:46;;;;;;;2.28;0.85;;;;;;;11.77;53.71;101054.69;4983565;28;20067;-75
2024/01/24 02:57:15;;;;;;;1.70;0.80;;;;;;;11.78;53.90;101051.81;4968053;28;20533;-75
2024/01/24 02:59:44;;;;;;;2.67;0.70;;;;;;;11.80;54.04;101041.53;4971428;28;20039;-75
2024/01/24 03:02:12;;;;;;;2.40;0.90;;;;;;;11.81;53.57;101034.19;4969462;28;20046;-76
2024/01/24 03:04:40;;;;;;;1.33;0.80;;;;;;;11.83;53.82;101035.78;4971313;28;20045;-75
2024/01/24 03:07:08;;;;;;;1.48;0.75;;;;;;;11.86;53.46;101037.41;4972795;28;20049;-75
2024/01/24 03:09:36;;;;;;;1.67;0.77;;;;;;;11.86;53.54;101030.03;4972066;28;20054;-75
2024/01/24 03:12:04;;;;;;;1.20;0.75;;;;;;;11.90;53.67;101052.56;4971708;28;20042;-74
2024/01/24 03:14:32;;;;;;;1.48;0.80;;;;;;;11.91;53.37;101030.47;4970326;28;20138;-75
2024/01/24 03:17:02;;;;;;;2.00;0.82;;;;;;;11.93;53.76;101058.66;4972523;28;20055;-75
2024/01/24 03:19:30;;;;;;;0.93;0.57;;;;;;;11.94;53.84;101049.41;4970606;28;20113;-75
2024/01/24 03:21:58;;;;;;;1.95;0.70;;;;;;;11.95;53.12;101055.78;4982292;28;20118;-75
2024/01/24 03:24:26;;;;;;;0.90;0.70;;;;;;;11.96;53.78;101038.31;4969087;28;20049;-75
2024/01/24 03:26:54;;;;;;;1.58;0.65;;;;;;;11.97;53.24;101032.66;4970266;28;20419;-75
2024/01/24 03:29:22;;;;;;;1.00;0.70;;;;;;;11.99;53.32;101005.09;4969364;28;20056;-75
2024/01/24 03:31:50;;;;;;;1.35;0.70;;;;;;;12.00;53.29;101013.19;4969033;28;20137;-75
2024/01/24 03:34:19;;;;;;;1.45;0.60;;;;;;;12.02;53.74;101035.00;4963866;28;20476;-75
2024/01/24 03:36:47;;;;;;;1.50;0.70;;;;;;;12.01;53.47;101030.53;4971208;28;20544;-75
2024/01/24 03:39:15;;;;;;;1.55;0.65;;;;;;;12.01;53.47;101017.69;4969163;28;20038;-75
2024/01/24 03:41:43;;;;;;;0.73;0.52;;;;;;;12.01;53.27;101028.66;4965846;28;20107;-75
2024/01/24 03:44:11;;;;;;;0.40;0.40;;;;;;;12.01;53.41;101020.41;4969456;28;20085;-75
2024/01/24 03:46:39;;;;;;;0.85;0.50;;;;;;;12.03;53.21;101018.41;4961864;28;20046;-75
2024/01/24 03:49:07;;;;;;;1.48;0.50;;;;;;;12.03;53.26;101051.34;4969528;28;20130;-75
2024/01/24 03:51:36;;;;;;;0.50;0.40;;;;;;;12.05;53.43;101053.91;4964158;28;20038;-75
2024/01/24 03:54:05;;;;;;;1.23;0.50;;;;;;;12.04;53.45;101060.44;4968164;28;20621;-75
2024/01/24 03:56:33;;;;;;;1.17;0.45;;;;;;;12.03;53.97;101055.94;4965593;28;20153;-75
2024/01/24 03:59:00;;;;;;;0.70;0.40;;;;;;;12.04;53.49;101065.91;4969857;28;20130;-75
2024/01/24 04:01:28;;;;;;;0.45;0.38;;;;;;;12.02;53.88;101071.53;4969821;28;20050;-75
2024/01/24 04:03:56;;;;;;;1.52;0.85;;;;;;;12.03;53.62;101061.44;4967978;28;20054;-75
2024/01/24 04:06:24;;;;;;;0.40;0.40;;;;;;;12.03;53.76;101080.63;4969037;28;20126;-75
2024/01/24 04:08:54;;;;;;;0.63;0.35;;;;;;;12.02;54.23;101096.22;4968094;28;20101;-75
2024/01/24 04:11:22;;;;;;;0.40;0.40;;;;;;;12.00;53.82;101098.22;4963601;28;20035;-75
2024/01/24 04:13:52;;;;;;;0.80;0.40;;;;;;;12.01;54.19;101105.47;4966592;28;20669;-75
2024/01/24 04:16:20;;;;;;;1.30;0.32;;;;;;;11.98;53.85;101099.38;4970510;28;20077;-75
2024/01/24 04:18:50;;;;;;;0.93;0.45;;;;;;;11.97;54.31;101098.50;4971552;28;20039;-75
2024/01/24 04:21:18;;;;;;;1.40;0.60;;;;;;;11.96;54.43;101090.44;4969529;28;20046;-75
2024/01/24 04:23:46;;;;;;;1.00;0.60;;;;;;;11.95;53.90;101095.03;4970241;28;20439;-76
2024/01/24 04:26:16;;;;;;;2.00;0.70;;;;;;;11.97;54.09;101092.13;4969085;28;20510;-75
2024/01/24 04:28:44;;;;;;;1.00;0.60;;;;;;;11.96;54.09;101096.78;4970662;28;20133;-75
2024/01/24 04:31:12;;;;;;;0.63;0.50;;;;;;;11.94;54.46;101101.53;4970414;28;20557;-75
2024/01/24 04:33:40;;;;;;;0.60;0.50;;;;;;;11.94;54.07;101081.47;4969284;28;20450;-75
2024/01/24 04:36:09;;;;;;;1.40;0.63;;;;;;;11.94;54.17;101089.69;4970337;28;20051;-75
2024/01/24 04:38:38;;;;;;;1.30;0.70;;;;;;;11.94;54.01;101093.31;4968306;28;20125;-75
2024/01/24 04:41:09;;;;;;;1.65;0.70;;;;;;;11.95;54.17;101095.03;4965081;28;20050;-74
2024/01/24 04:43:39;;;;;;;1.83;0.80;;;;;;;11.95;54.06;101097.78;4968980;28;20109;-74
2024/01/24 04:46:13;;;;;;;0.68;0.50;;;;;;;11.95;53.48;101121.59;4973801;28;20042;-74
2024/01/24 04:48:41;;;;;;;1.98;0.70;;;;;;;11.93;53.01;101116.25;4962529;28;20042;-75
2024/01/24 04:51:10;;;;;;;1.40;0.77;;;;;;;11.91;52.90;101104.53;4968187;28;20518;-75
2024/01/24 04:53:39;;;;;;;1.50;0.60;;;;;;;11.92;52.92;101158.38;4969313;28;20051;-75
2024/01/24 04:56:07;;;;;;;0.90;0.40;;;;;;;11.91;53.32;101159.38;4968065;28;20042;-75
2024/01/24 04:58:35;;;;;;;0.95;0.57;;;;;;;11.91;53.15;101150.28;4970378;28;20049;-74
2024/01/24 05:01:05;;;;;;;2.95;0.90;;;;;;;11.93;52.69;101148.28;4970003;28;20116;-74
2024/01/24 05:03:33;;;;;;;0.95;0.50;;;;;;;11.91;52.56;101144.81;4968751;28;21060;-75
2024/01/24 05:06:01;;;;;;;1.55;0.90;;;;;;;11.89;52.62;101157.78;4970440;28;20098;-75
2024/01/24 05:08:37;;;;;;;1.77;0.52;;;;;;;11.90;52.56;101159.53;4969484;28;20093;-74
2024/01/24 05:11:05;;;;;;;1.35;0.40;;;;;;;11.90;52.67;101179.59;4970583;28;20085;-75
2024/01/24 05:13:33;;;;;;;2.05;0.52;;;;;;;11.90;52.50;101165.88;4984495;28;20104;-75
2024/01/24 05:16:01;;;;;;;1.27;0.65;;;;;;;11.91;52.48;101153.03;4969809;28;20045;-75
2024/01/24 05:18:31;;;;;;;2.20;0.75;;;;;;;11.93;52.04;101171.09;4978560;28;20055;-75
2024/01/24 05:21:00;;;;;;;1.45;0.70;;;;;;;11.92;51.93;101150.16;4964730;28;20094;-75
2024/01/24 05:23:28;;;;;;;3.03;0.73;;;;;;;11.92;51.99;101168.50;4964723;28;20455;-74
2024/01/24 05:25:56;;;;;;;1.80;0.50;;;;;;;11.91;52.22;101150.28;4969627;28;20042;-74
2024/01/24 05:28:23;;;;;;;1.60;0.40;;;;;;;11.92;51.48;101172.09;4968146;28;20046;-75
2024/01/24 05:30:51;;;;;;;1.77;0.60;;;;;;;11.91;51.35;101159.38;4967087;28;20118;-75
2024/01/24 05:33:19;;;;;;;2.33;0.50;;;;;;;11.92;51.54;101165.75;4981282;28;20043;-74
2024/01/24 05:35:48;;;;;;;3.83;0.98;;;;;;;11.93;51.51;101173.84;4973323;28;20472;-75
2024/01/24 05:38:16;;;;;;;4.10;0.95;;;;;;;11.91;51.36;101194.19;4966739;28;20515;-75
2024/01/24 05:40:44;;;;;;;3.80;1.00;;;;;;;11.91;50.34;101161.25;4968997;28;20150;-75
2024/01/24 05:43:12;;;;;;;2.22;1.00;;;;;;;11.90;50.28;101168.63;4965325;28;20047;-75
2024/01/24 05:45:40;;;;;;;4.68;1.17;;;;;;;11.91;49.73;101159.38;4962897;28;20306;-75
2024/01/24 05:48:09;;;;;;;4.03;1.55;;;;;;;11.91;49.25;101153.03;4963496;28;20066;-74
2024/01/24 05:50:37;;;;;;;4.93;1.60;;;;;;;11.89;49.60;101139.44;4970557;28;20059;-75
2024/01/24 05:53:06;;;;;;;5.55;1.42;;;;;;;11.90;49.28;101152.16;4965636;28;20042;-75
2024/01/24 05:55:34;;;;;;;5.32;1.55;;;;;;;11.88;48.83;101159.69;4970385;28;20173;-74
2024/01/24 05:58:02;;;;;;;5.50;1.50;;;;;;;11.88;48.41;101192.59;4961758;28;20055;-75
2024/01/24 06:00:30;;;;;;;3.65;1.38;;;;;;;11.87;48.60;101190.84;4968070;28;20122;-75
2024/01/24 06:02:58;;;;;;;5.80;1.52;;;;;;;11.88;48.35;101205.44;4961711;28;20533;-75
2024/01/24 06:05:26;;;;;;;4.78;1.90;;;;;;;11.87;47.84;101210.06;4968220;28;20039;-75
2024/01/24 06:07:54;;;;;;;4.07;1.35;;;;;;;11.85;48.29;101228.50;4971362;28;20047;-75
2024/01/24 06:10:23;;;;;;;4.75;1.63;;;;;;;11.86;47.88;101238.47;4971811;28;20039;-75
2024/01/24 06:12:51;;;;;;;4.70;1.00;;;;;;;11.84;48.56;101242.34;4969346;28;20078;-74
2024/01/24 06:15:19;;;;;;;4.82;1.17;;;;;;;11.84;48.19;101231.38;4969338;28;20043;-75
2024/01/24 06:17:48;;;;;;;4.95;1.10;;;;;;;11.83;48.13;101214.03;4965819;28;20047;-74
2024/01/24 06:20:16;;;;;;;5.10;1.30;;;;;;;11.83;48.50;101246.97;4968266;28;20113;-74
2024/01/24 06:22:45;;;;;;;4.32;1.60;;;;;;;11.85;48.45;101260.53;4962014;28;20139;-74
2024/01/24 06:25:14;;;;;;;6.40;1.77;;;;;;;11.82;48.12;101269.03;4971465;28;20049;-74
2024/01/24 06:27:45;;;;;;;5.18;1.42;;;;;;;11.83;47.78;101244.22;4966541;28;20545;-77
2024/01/24 06:30:14;;;;;;;6.28;1.58;;;;;;;11.82;47.98;101249.81;5048831;23;20046;-79
2024/01/24 06:32:51;;;;;;;4.30;1.33;;;;;;;11.80;47.91;101254.59;4999021;28;20160;-78
2024/01/24 06:35:20;;;;;;;5.55;1.50;;;;;;;11.81;48.27;101248.94;4987011;28;20398;-79
2024/01/24 06:37:50;;;;;;;7.32;1.70;;;;;;;11.82;48.27;101249.81;4997872;28;20084;-75
2024/01/24 06:40:19;;;;;;;4.82;1.70;;;;;;;11.82;48.04;101263.53;4986370;28;20522;-75
2024/01/24 06:42:50;;;;;;;8.13;2.22;;;;;;;11.80;47.84;101266.41;4989154;28;20050;-75
2024/01/24 06:45:19;;;;;;;5.90;1.80;;;;;;;11.80;47.54;101262.81;4978454;28;20486;-75
2024/01/24 06:47:47;;;;;;;6.25;1.92;;;;;;;11.78;47.96;101276.66;5003508;28;20042;-75
2024/01/24 06:50:17;;;;;;;10.38;2.40;;;;;;;11.78;47.41;101300.47;4983299;28;20102;-75
2024/01/24 06:52:45;;;;;;;8.27;1.83;;;;;;;11.78;47.80;101301.34;4991674;28;20051;-75
2024/01/24 06:55:14;;;;;;;6.05;2.22;;;;;;;11.75;47.77;101309.81;4981892;28;20070;-76
2024/01/24 06:57:42;;;;;;;8.13;1.83;;;;;;;11.75;47.57;101309.81;4987190;28;20418;-76
2024/01/24 07:00:13;;;;;;;7.10;1.80;;;;;;;11.74;47.16;101322.66;4983667;28;20105;-76
2024/01/24 07:02:41;;;;;;;8.18;2.60;;;;;;;11.70;47.06;101332.16;4986004;28;20043;-76
2024/01/24 07:05:10;;;;;;;8.73;2.33;;;;;;;11.70;47.47;101336.78;4991130;28;20046;-75
2024/01/24 07:07:38;;;;;;;6.28;2.63;;;;;;;11.68;47.61;101339.63;4988042;28;20478;-76
2024/01/24 07:10:10;;;;;;;6.13;2.38;;;;;;;11.67;46.97;101368.06;4978620;28;20074;-76
2024/01/24 07:12:44;;;;;;;6.82;2.00;;;;;;;11.66;47.32;101362.69;4985909;28;20047;-76
2024/01/24 07:15:15;;;;;;;7.43;2.20;;;;;;;11.66;46.88;101360.81;4982319;28;20039;-76
2024/01/24 07:17:44;;;;;;;8.20;2.60;;;;;;;11.63;47.22;101369.31;4974911;28;20042;-80
2024/01/24 07:20:15;;;;;;;9.38;2.63;;;;;;;11.63;47.03;101358.38;4990376;28;20047;-75
2024/01/24 07:22:43;;;;;;;7.30;2.50;;;;;;;11.62;46.76;101395.00;4990542;28;20096;-75
2024/01/24 07:25:11;;;;;;;7.22;2.58;;;;;;;11.61;47.32;101387.78;4992132;28;20453;-75
2024/01/24 07:27:39;;;;;;;7.53;2.25;;;;;;;11.61;46.91;101385.03;4991929;28;20449;-75
2024/01/24 07:30:08;;;;;;;8.48;2.25;;;;;;;11.61;46.75;101365.84;4991621;28;20043;-75
2024/01/24 07:32:39;;;;;;;11.23;2.88;;;;;;;11.62;46.41;101380.41;4989976;28;20054;-75
2024/01/24 07:35:09;;;;;;;8.23;2.80;;;;;;;11.60;46.98;101382.38;4991941;28;20130;-75
2024/01/24 07:37:37;;;;;;;5.97;2.28;;;;;;;11.59;46.67;101403.44;4991893;28;20050;-75
2024/01/24 07:40:07;;;;;;;8.75;2.67;;;;;;;11.59;46.85;101375.16;4991030;28;20137;-75
2024/01/24 07:42:35;;;;;;;8.77;2.30;;;;;;;11.59;46.35;101388.84;4989906;28;20042;-75
2024/01/24 07:45:03;;;;;;;9.98;2.83;;;;;;;11.57;46.71;101405.41;4990096;28;20046;-75
2024/01/24 07:47:31;;;;;;;10.73;3.60;;;;;;;11.56;46.86;101416.50;4991331;28;20536;-75
2024/01/24 07:50:02;;;;;;;11.07;2.63;;;;;;;11.57;46.75;101408.16;4991086;28;20065;-75
2024/01/24 07:52:31;;;;;;;9.63;3.08;;;;;;;11.54;46.05;101413.94;4991671;28;20057;-75
2024/01/24 07:55:09;;;;;;;10.55;3.28;;;;;;;11.54;46.01;101435.84;4991624;28;20082;-75
2024/01/24 07:57:38;;;;;;;9.68;2.67;;;;;;;11.52;46.41;101453.41;4990066;28;20046;-75
2024/01/24 08:00:08;;;;;;;12.57;3.20;;;;;;;11.52;46.27;101446.06;4989922;28;20050;-75
2024/01/24 08:02:36;;;;;;;8.88;2.70;;;;;;;11.51;46.09;101441.56;4989392;28;20473;-75
2024/01/24 08:05:06;;;;;;;9.38;2.70;;;;;;;11.52;45.82;101440.59;4990991;28;20038;-75
2024/01/24 08:07:36;;;;;;;11.48;3.70;;;;;;;11.51;45.82;101443.44;4991909;28;20463;-75
2024/01/24 08:10:06;;;;;;;12.50;2.90;;;;;;;11.50;46.24;101445.31;4990905;28;20061;-75
2024/01/24 08:12:34;;;;;;;8.80;2.50;;;;;;;11.48;46.09;101452.78;4991015;28;20053;-75
2024/01/24 08:15:05;;;;;;;10.82;2.75;;;;;;;11.48;46.18;101474.72;4991095;28;20065;-75
2024/01/24 08:17:33;;;;;;;8.13;2.90;;;;;;;11.47;45.85;101491.31;4991217;28;20109;-75
2024/01/24 08:20:03;;;;;;;8.52;2.85;;;;;;;11.47;45.67;101483.09;4990508;28;20510;-74
2024/01/24 08:22:32;;;;;;;10.48;3.13;;;;;;;11.48;46.15;101490.28;4991123;28;20046;-75
2024/01/24 08:25:00;;;;;;;10.20;2.67;;;;;;;11.46;46.17;101473.13;4991100;28;20042;-76
2024/01/24 08:27:29;;;;;;;10.70;2.83;;;;;;;11.46;45.96;101478.59;4989495;28;20424;-75
2024/01/24 08:29:59;;;;;;;8.35;2.83;;;;;;;11.45;46.44;101488.69;4989550;28;20125;-75
2024/01/24 08:32:27;;;;;;;11.73;3.25;;;;;;;11.43;46.82;101490.66;4989697;28;20038;-75
2024/01/24 08:34:55;;;;;;;8.50;2.63;;;;;;;11.43;46.83;101500.75;4975653;28;20045;-76
2024/01/24 08:37:23;;;;;;;13.07;3.42;;;;;;;11.42;46.63;101505.38;4991751;28;20065;-76
2024/01/24 08:39:52;;;;;;;8.73;2.97;;;;;;;11.43;46.64;101508.97;4988170;28;20391;-75
2024/01/24 08:42:20;;;;;;;11.13;3.40;;;;;;;11.40;46.35;101526.53;4987667;28;20070;-75
2024/01/24 08:44:49;;;;;;;10.35;3.30;;;;;;;11.38;46.21;101516.72;4991066;28;20047;-78
2024/01/24 08:47:41;;;;;;;9.38;2.70;;;;;;;11.39;45.51;101533.00;4994005;28;20142;-79
2024/01/24 08:50:10;;;;;;;12.00;3.40;;;;;;;11.33;46.31;101547.22;4999714;23;20050;-74
2024/01/24 08:52:38;;;;;;;10.07;2.90;;;;;;;11.33;46.19;101560.91;4997444;28;20428;-74
2024/01/24 08:55:09;;;;;;;11.63;3.00;;;;;;;11.35;46.23;101537.88;4972084;28;20112;-73
2024/01/24 08:57:38;;;;;;;11.80;3.60;;;;;;;11.32;46.20;101561.91;4973214;28;20494;-74
2024/01/24 09:00:08;;;;;;;11.38;3.10;;;;;;;11.33;45.71;101528.91;4969304;28;20042;-74
2024/01/24 09:02:36;;;;;;;9.18;2.92;;;;;;;11.31;45.75;101576.59;4965924;28;21718;-75
2024/01/24 09:05:05;;;;;;;11.32;3.10;;;;;;;11.31;45.88;101590.31;4964779;28;20039;-74
2024/01/24 09:07:33;;;;;;;11.77;3.42;;;;;;;11.31;45.74;101593.03;4969369;28;20051;-74
2024/01/24 09:10:02;;;;;;;11.77;3.33;;;;;;;11.30;44.90;101585.84;4970778;28;20042;-74
2024/01/24 09:12:32;;;;;;;10.55;3.28;;;;;;;11.30;44.89;101581.25;4968328;28;20062;-74
2024/01/24 09:15:00;;;;;;;10.63;2.97;;;;;;;11.30;44.68;101580.38;4970006;28;20050;-74
2024/01/24 09:17:28;;;;;;;10.80;2.63;;;;;;;11.32;44.44;101553.69;4969948;28;20070;-74
2024/01/24 09:19:56;;;;;;;8.20;3.10;;;;;;;11.33;44.84;101575.50;4973266;28;20054;-74
2024/01/24 09:22:25;;;;;;;11.77;2.92;;;;;;;11.34;44.72;101576.38;4970141;28;20053;-74
2024/01/24 09:24:53;;;;;;;7.88;2.88;;;;;;;11.35;44.51;101562.56;4964574;28;20050;-74
2024/01/24 09:27:21;;;;;;;10.93;3.05;;;;;;;11.36;44.28;101575.25;4972262;28;20046;-74
2024/01/24 09:29:50;;;;;;;11.32;3.78;;;;;;;11.39;43.94;101586.97;4973171;28;20050;-74
2024/01/24 09:32:18;;;;;;;11.35;3.15;;;;;;;11.38;43.95;101619.00;4971278;28;20057;-74
2024/01/24 09:34:46;;;;;;;11.52;3.50;;;;;;;11.39;44.00;101637.16;4971603;28;20502;-74
2024/01/24 09:37:14;;;;;;;12.18;3.50;;;;;;;11.39;43.48;101631.69;4973532;28;20209;-74
2024/01/24 09:39:42;;;;;;;10.50;3.33;;;;;;;11.41;43.53;101602.28;4965916;28;20126;-74
2024/01/24 09:42:19;;;;;;;7.95;2.72;;;;;;;11.42;42.12;101619.59;4969923;28;20042;-74
2024/01/24 09:44:50;;;;;;;12.38;3.28;;;;;;;11.41;43.23;101604.16;4971706;28;20039;-74
2024/01/24 09:47:22;;;;;;;12.25;2.67;;;;;;;11.41;43.06;101628.81;4970267;28;20035;-74
2024/01/24 09:49:51;;;;;;;11.00;2.92;;;;;;;11.40;43.19;101641.66;4966332;28;20043;-74
2024/01/24 09:52:23;;;;;;;9.50;3.38;;;;;;;11.41;43.43;101643.41;4972657;28;20134;-75
2024/01/24 09:54:57;;;;;;;9.00;2.85;;;;;;;11.40;42.73;101647.13;4972910;28;20109;-75
2024/01/24 09:57:26;;;;;;;;;;;;;;;11.14;43.97;101654.66;4974902;28;20394;-74
2024/01/24 09:59:55;;;;;;;9.48;3.13;;;;;;;11.36;42.99;101681.28;5004370;28;20297;-74
2024/01/24 10:02:26;;;;;;;12.32;3.10;;;;;;;11.38;43.35;101684.78;4971870;28;20058;-74
2024/01/24 10:04:55;;;;;;;11.80;3.08;;;;;;;11.39;43.62;101680.16;4969491;28;20041;-74
2024/01/24 10:07:23;;;;;;;10.00;3.25;;;;;;;11.38;43.17;101690.25;4972893;28;20239;-74
2024/01/24 10:10:07;;;;;;;10.02;3.08;;;;;;;11.39;42.06;101664.56;4973004;28;20098;-74
2024/01/24 10:12:36;;;;;;;9.90;3.00;;;;;;;11.38;43.42;101683.91;4970578;28;20101;-74
2024/01/24 10:15:07;;;;;;;11.25;3.17;;;;;;;11.39;43.12;101675.53;4972910;28;20503;-74
2024/01/24 10:17:35;;;;;;;12.70;3.28;;;;;;;11.37;42.94;101661.09;4971516;28;20046;-73
2024/01/24 10:20:06;;;;;;;12.05;3.35;;;;;;;11.38;42.98;101672.94;4971596;28;20671;-74
2024/01/24 10:22:34;;;;;;;10.52;3.10;;;;;;;11.38;43.46;101683.91;5011339;28;20046;-74
2024/01/24 10:25:02;;;;;;;11.57;3.28;;;;;;;11.40;43.16;101679.16;4965872;28;20058;-74
2024/01/24 10:27:30;;;;;;;14.93;3.53;;;;;;;11.36;42.79;101673.06;4972157;28;20049;-74
2024/01/24 10:30:01;;;;;;;11.70;3.53;;;;;;;11.36;42.88;101684.88;4970488;28;20047;-74
2024/01/24 10:32:32;;;;;;;12.32;3.60;;;;;;;11.39;42.71;101702.09;4971547;28;20043;-74
2024/01/24 10:35:04;;;;;;;14.80;3.58;;;;;;;11.37;42.05;101710.44;4973139;28;20125;-74
2024/01/24 10:37:33;;;;;;;12.55;3.65;;;;;;;11.33;43.14;101707.03;4972787;28;20506;-74
2024/01/24 10:40:06;;;;;;;13.00;3.17;;;;;;;11.38;43.00;101706.69;4972817;28;20494;-73
2024/01/24 10:42:37;;;;;;;13.13;3.50;;;;;;;11.36;42.90;101704.06;4965080;28;20134;-74
2024/01/24 10:45:06;;;;;;;9.85;3.38;;;;;;;11.38;42.69;101708.56;4971428;28;20124;-73
2024/01/24 10:47:36;;;;;;;10.30;3.00;;;;;;;11.39;42.80;101700.19;4970888;28;20573;-74
2024/01/24 10:50:09;;;;;;;12.07;3.92;;;;;;;11.42;42.77;101702.72;4971359;28;20035;-74
2024/01/24 10:52:39;;;;;;;13.60;3.60;;;;;;;11.40;42.54;101704.69;5002822;28;20043;-73
2024/01/24 10:55:12;;;;;;;13.25;3.65;;;;;;;11.42;42.53;101718.28;5003811;28;20046;-73
2024/01/24 10:57:41;;;;;;;9.70;3.38;;;;;;;11.43;42.54;101717.28;4970210;28;20034;-74
2024/01/24 11:00:11;;;;;;;9.80;3.10;;;;;;;11.43;42.51;101714.56;4969732;28;20043;-74
2024/01/24 11:02:43;;;;;;;14.23;3.38;;;;;;;11.43;42.25;101726.38;4969810;28;20057;-74
2024/01/24 11:05:19;;;;;;;13.32;2.80;;;;;;;11.46;41.66;101730.78;4972326;28;20133;-74
2024/01/24 11:08:01;;;;;;;14.93;3.28;;;;;;;11.47;42.11;101721.56;4969056;28;20510;-74
2024/01/24 11:10:34;;;;;;;12.13;3.40;;;;;;;11.47;41.99;101727.03;4970243;28;20054;-73
2024/01/24 11:13:05;;;;;;;9.35;2.88;;;;;;;11.44;42.70;101728.13;4996591;28;20062;-73
2024/01/24 11:15:33;;;;;;;11.88;3.05;;;;;;;11.47;42.13;101736.09;4969686;28;20074;-73
2024/01/24 11:18:21;;;;;;;11.32;3.80;;;;;;;11.49;41.42;101736.00;4970709;28;20041;-74
2024/01/24 11:20:52;;;;;;;9.63;3.65;;;;;;;11.47;42.46;101738.84;4963217;28;20042;-74
2024/01/24 11:23:44;;;;;;;13.77;3.15;;;;;;;11.50;41.05;101756.94;4969159;28;20054;-74
2024/01/24 11:26:14;;;;;;;10.13;3.22;;;;;;;11.49;42.58;101738.72;4964810;28;20414;-73
2024/01/24 11:28:42;;;;;;;9.18;3.15;;;;;;;11.51;42.39;101751.34;4971837;28;20043;-73
2024/01/24 11:31:12;;;;;;;10.70;2.97;;;;;;;11.52;42.03;101752.22;4971821;28;20050;-74
2024/01/24 11:34:07;;;;;;;11.32;3.45;;;;;;;11.57;41.21;101755.47;4970345;28;20038;-73